createdAt,value
2019-02-23T00:00:15.926Z,56.20
2019-02-23T00:00:47.163Z,56.30
2019-02-23T00:01:18.351Z,56.20
2019-02-23T00:01:49.538Z,56.20
2019-02-23T00:02:20.711Z,56.10
2019-02-23T00:02:51.888Z,56.10
2019-02-23T00:03:25.345Z,56.10
2019-02-23T00:03:56.331Z,56.10
2019-02-23T00:04:27.572Z,56.00
2019-02-23T00:04:59.113Z,56.00
2019-02-23T00:05:30.296Z,56.00
2019-02-23T00:06:01.785Z,56.00
2019-02-23T00:06:33.005Z,55.90
2019-02-23T00:07:04.453Z,55.90
2019-02-23T00:07:35.995Z,55.90
2019-02-23T00:08:07.533Z,55.90
2019-02-23T00:08:38.773Z,55.90
2019-02-23T00:09:09.993Z,55.80
2019-02-23T00:09:41.542Z,55.90
2019-02-23T00:10:12.721Z,55.80
2019-02-23T00:10:44.201Z,55.90
2019-02-23T00:11:15.750Z,55.80
2019-02-23T00:11:46.995Z,55.80
2019-02-23T00:12:18.182Z,55.90
2019-02-23T00:12:49.359Z,55.90
2019-02-23T00:13:20.538Z,56.00
2019-02-23T00:13:52.122Z,55.80
2019-02-23T00:14:23.358Z,55.90
2019-02-23T00:14:54.572Z,55.80
2019-02-23T00:15:25.746Z,55.80
2019-02-23T00:15:56.935Z,55.90
2019-02-23T00:16:28.102Z,55.80
2019-02-23T00:16:59.278Z,55.80
2019-02-23T00:17:30.451Z,55.80
2019-02-23T00:18:01.627Z,55.90
2019-02-23T00:18:32.803Z,55.90
2019-02-23T00:19:04.010Z,55.80
2019-02-23T00:19:35.480Z,55.90
2019-02-23T00:20:06.678Z,55.90
2019-02-23T00:20:37.855Z,55.90
2019-02-23T00:21:09.059Z,55.90
2019-02-23T00:21:40.239Z,55.90
2019-02-23T00:22:11.419Z,55.90
2019-02-23T00:22:42.596Z,55.90
2019-02-23T00:23:14.088Z,55.90
2019-02-23T00:23:45.635Z,55.90
2019-02-23T00:24:16.882Z,55.90
2019-02-23T00:24:48.059Z,56.00
2019-02-23T00:25:19.240Z,55.90
2019-02-23T00:25:50.762Z,55.60
2019-02-23T00:26:21.943Z,55.90
2019-02-23T00:26:53.391Z,55.90
2019-02-23T00:27:24.585Z,55.90
2019-02-23T00:27:55.749Z,55.90
2019-02-23T00:28:26.941Z,55.90
2019-02-23T00:28:58.120Z,55.90
2019-02-23T00:29:29.316Z,55.80
2019-02-23T00:30:00.508Z,55.80
2019-02-23T00:30:31.998Z,55.80
2019-02-23T00:31:03.181Z,55.80
2019-02-23T00:31:34.727Z,55.80
2019-02-23T00:32:05.977Z,55.80
2019-02-23T00:32:37.181Z,55.70
2019-02-23T00:33:08.371Z,55.70
2019-02-23T00:33:39.538Z,55.70
2019-02-23T00:34:10.734Z,55.70
2019-02-23T00:34:41.913Z,55.70
2019-02-23T00:35:13.094Z,55.70
2019-02-23T00:35:44.273Z,55.70
2019-02-23T00:36:15.475Z,55.70
2019-02-23T00:36:46.679Z,55.70
2019-02-23T00:37:17.862Z,55.70
2019-02-23T00:37:49.067Z,55.70
2019-02-23T00:38:20.235Z,55.70
2019-02-23T00:38:51.409Z,55.70
2019-02-23T00:39:22.614Z,55.70
2019-02-23T00:39:53.888Z,55.70
2019-02-23T00:40:25.069Z,55.70
2019-02-23T00:40:56.240Z,55.70
2019-02-23T00:41:27.479Z,55.70
2019-02-23T00:41:58.658Z,55.60
2019-02-23T00:42:29.839Z,55.70
2019-02-23T00:43:01.228Z,55.70
2019-02-23T00:43:32.667Z,55.70
2019-02-23T00:44:03.848Z,55.70
2019-02-23T00:44:35.335Z,55.70
2019-02-23T00:45:06.505Z,55.70
2019-02-23T00:45:37.684Z,55.60
2019-02-23T00:46:09.009Z,55.70
2019-02-23T00:46:40.185Z,55.70
2019-02-23T00:47:11.360Z,55.70
2019-02-23T00:47:42.545Z,55.60
2019-02-23T00:48:13.720Z,56.40
2019-02-23T00:48:44.979Z,55.70
2019-02-23T00:49:16.204Z,55.70
2019-02-23T00:49:47.386Z,55.60
2019-02-23T00:50:18.556Z,55.70
2019-02-23T00:50:49.733Z,55.60
2019-02-23T00:51:20.913Z,55.70
2019-02-23T00:51:52.089Z,55.60
2019-02-23T00:52:23.618Z,55.60
2019-02-23T00:52:54.808Z,55.60
2019-02-23T00:53:25.985Z,55.60
2019-02-23T00:53:57.619Z,55.60
2019-02-23T00:54:28.818Z,55.60
2019-02-23T00:54:59.993Z,55.60
2019-02-23T00:55:31.634Z,55.60
2019-02-23T00:56:03.176Z,55.60
2019-02-23T00:56:34.793Z,55.60
2019-02-23T00:57:05.963Z,55.60
2019-02-23T00:57:37.469Z,55.60
2019-02-23T00:58:09.108Z,55.60
2019-02-23T00:58:40.654Z,55.60
2019-02-23T00:59:11.852Z,55.50
2019-02-23T00:59:43.420Z,55.50
2019-02-23T01:00:14.690Z,55.50
2019-02-23T01:00:46.231Z,55.50
2019-02-23T01:01:17.411Z,55.50
2019-02-23T01:01:48.605Z,55.50
2019-02-23T01:02:20.093Z,55.50
2019-02-23T01:02:51.295Z,55.50
2019-02-23T01:03:22.468Z,55.50
2019-02-23T01:03:53.668Z,56.10
2019-02-23T01:04:24.846Z,55.50
2019-02-23T01:04:56.067Z,55.50
2019-02-23T01:05:27.263Z,55.50
2019-02-23T01:05:58.439Z,55.50
2019-02-23T01:06:29.667Z,55.50
2019-02-23T01:07:01.400Z,55.40
2019-02-23T01:07:32.932Z,55.40
2019-02-23T01:08:04.108Z,55.40
2019-02-23T01:08:35.279Z,55.40
2019-02-23T01:09:06.457Z,55.40
2019-02-23T01:09:37.636Z,55.50
2019-02-23T01:10:08.854Z,55.40
2019-02-23T01:10:40.393Z,55.50
2019-02-23T01:11:11.572Z,55.40
2019-02-23T01:11:42.745Z,55.40
2019-02-23T01:12:13.952Z,55.40
2019-02-23T01:12:45.171Z,55.40
2019-02-23T01:13:16.998Z,55.40
2019-02-23T01:13:48.320Z,55.40
2019-02-23T01:14:19.541Z,55.40
2019-02-23T01:14:50.720Z,55.40
2019-02-23T01:15:21.901Z,55.50
2019-02-23T01:15:53.103Z,55.50
2019-02-23T01:16:24.593Z,55.50
2019-02-23T01:16:55.781Z,55.50
2019-02-23T01:17:27.057Z,55.50
2019-02-23T01:17:58.234Z,55.50
2019-02-23T01:18:29.739Z,55.40
2019-02-23T01:19:01.115Z,55.50
2019-02-23T01:19:32.250Z,55.40
2019-02-23T01:20:03.427Z,55.40
2019-02-23T01:20:34.598Z,55.30
2019-02-23T01:21:05.818Z,55.40
2019-02-23T01:21:37.022Z,55.30
2019-02-23T01:22:08.333Z,55.20
2019-02-23T01:22:39.767Z,55.30
2019-02-23T01:23:10.939Z,55.30
2019-02-23T01:23:42.588Z,55.30
2019-02-23T01:24:13.845Z,55.20
2019-02-23T01:24:45.023Z,55.20
2019-02-23T01:25:16.251Z,55.20
2019-02-23T01:25:47.463Z,55.30
2019-02-23T01:26:18.632Z,55.30
2019-02-23T01:26:49.915Z,55.20
2019-02-23T01:27:21.072Z,55.20
2019-02-23T01:27:52.523Z,55.20
2019-02-23T01:28:23.751Z,55.30
2019-02-23T01:28:55.328Z,55.20
2019-02-23T01:29:26.808Z,55.20
2019-02-23T01:29:57.992Z,55.20
2019-02-23T01:30:29.168Z,55.20
2019-02-23T01:31:00.640Z,55.20
2019-02-23T01:31:31.869Z,55.20
2019-02-23T01:32:03.414Z,55.20
2019-02-23T01:32:34.616Z,55.20
2019-02-23T01:33:05.845Z,55.20
2019-02-23T01:33:37.029Z,55.20
2019-02-23T01:34:08.582Z,55.20
2019-02-23T01:34:39.835Z,55.20
2019-02-23T01:35:11.008Z,55.20
2019-02-23T01:35:42.189Z,55.10
2019-02-23T01:36:13.384Z,55.20
2019-02-23T01:36:44.601Z,55.10
2019-02-23T01:37:15.892Z,55.20
2019-02-23T01:37:47.506Z,55.20
2019-02-23T01:38:18.688Z,55.20
2019-02-23T01:38:49.868Z,55.20
2019-02-23T01:39:21.051Z,55.30
2019-02-23T01:39:52.234Z,55.20
2019-02-23T01:40:23.488Z,55.30
2019-02-23T01:40:54.666Z,55.20
2019-02-23T01:41:26.203Z,55.20
2019-02-23T01:41:57.386Z,55.20
2019-02-23T01:42:28.566Z,55.20
2019-02-23T01:42:59.746Z,55.20
2019-02-23T01:43:31.285Z,55.20
2019-02-23T01:44:02.876Z,55.20
2019-02-23T01:44:34.416Z,55.30
2019-02-23T01:45:05.598Z,55.20
2019-02-23T01:45:42.350Z,55.20
2019-02-23T01:46:09.962Z,55.20
2019-02-23T01:46:41.168Z,55.10
2019-02-23T01:47:12.337Z,55.20
2019-02-23T01:47:43.535Z,55.20
2019-02-23T01:48:14.783Z,55.10
2019-02-23T01:48:46.170Z,55.10
2019-02-23T01:49:17.415Z,55.10
2019-02-23T01:49:58.549Z,55.10
2019-02-23T01:50:21.792Z,55.00
2019-02-23T01:50:52.972Z,55.10
2019-02-23T01:51:24.196Z,55.00
2019-02-23T01:51:55.370Z,55.00
2019-02-23T01:52:26.894Z,55.10
2019-02-23T01:52:58.075Z,55.00
2019-02-23T01:53:29.281Z,55.00
2019-02-23T01:54:00.540Z,55.00
2019-02-23T01:54:31.741Z,55.80
2019-02-23T01:55:03.262Z,55.00
2019-02-23T01:55:34.442Z,55.00
2019-02-23T01:56:05.642Z,55.00
2019-02-23T01:56:36.818Z,55.00
2019-02-23T01:57:08.013Z,55.00
2019-02-23T01:57:39.222Z,55.00
2019-02-23T01:58:10.401Z,55.60
2019-02-23T01:58:41.584Z,55.00
2019-02-23T01:59:12.763Z,55.00
2019-02-23T01:59:44.369Z,55.00
2019-02-23T02:00:15.546Z,55.00
2019-02-23T02:00:46.767Z,55.00
2019-02-23T02:01:17.948Z,55.00
2019-02-23T02:01:49.114Z,55.00
2019-02-23T02:02:20.293Z,55.00
2019-02-23T02:02:51.463Z,55.00
2019-02-23T02:03:22.721Z,55.10
2019-02-23T02:03:54.010Z,55.00
2019-02-23T02:04:25.187Z,55.00
2019-02-23T02:04:56.438Z,55.00
2019-02-23T02:05:27.614Z,55.00
2019-02-23T02:05:58.791Z,55.00
2019-02-23T02:06:29.971Z,55.00
2019-02-23T02:07:01.410Z,55.00
2019-02-23T02:07:32.575Z,55.00
2019-02-23T02:08:03.777Z,55.00
2019-02-23T02:08:35.299Z,55.00
2019-02-23T02:09:06.839Z,55.00
2019-02-23T02:09:38.094Z,55.00
2019-02-23T02:10:09.618Z,55.00
2019-02-23T02:10:40.798Z,55.00
2019-02-23T02:11:11.972Z,55.00
2019-02-23T02:11:43.230Z,55.00
2019-02-23T02:12:14.402Z,55.00
2019-02-23T02:12:45.604Z,55.00
2019-02-23T02:13:16.837Z,55.00
2019-02-23T02:13:48.304Z,55.00
2019-02-23T02:14:19.480Z,55.00
2019-02-23T02:14:50.664Z,55.00
2019-02-23T02:15:21.846Z,55.00
2019-02-23T02:15:53.741Z,54.90
2019-02-23T02:16:24.936Z,54.90
2019-02-23T02:16:56.112Z,54.90
2019-02-23T02:17:27.292Z,54.90
2019-02-23T02:17:58.469Z,54.90
2019-02-23T02:18:29.645Z,54.90
2019-02-23T02:19:01.088Z,54.90
2019-02-23T02:19:32.333Z,54.90
2019-02-23T02:20:10.996Z,54.90
2019-02-23T02:20:36.441Z,54.90
2019-02-23T02:21:07.632Z,54.90
2019-02-23T02:21:39.210Z,54.90
2019-02-23T02:22:10.407Z,54.90
2019-02-23T02:22:41.852Z,54.90
2019-02-23T02:23:13.026Z,55.00
2019-02-23T02:23:44.219Z,54.90
2019-02-23T02:24:15.750Z,54.90
2019-02-23T02:24:46.934Z,54.90
2019-02-23T02:25:18.143Z,54.90
2019-02-23T02:25:49.315Z,54.90
2019-02-23T02:26:20.806Z,54.90
2019-02-23T02:26:51.987Z,54.90
2019-02-23T02:27:23.162Z,54.90
2019-02-23T02:27:54.339Z,54.40
2019-02-23T02:28:25.815Z,54.90
2019-02-23T02:28:57.000Z,54.90
2019-02-23T02:29:28.179Z,54.90
2019-02-23T02:29:59.633Z,55.00
2019-02-23T02:30:30.852Z,55.00
2019-02-23T02:31:02.087Z,54.90
2019-02-23T02:31:33.263Z,55.00
2019-02-23T02:32:04.527Z,55.00
2019-02-23T02:32:35.691Z,55.00
2019-02-23T02:33:06.880Z,55.30
2019-02-23T02:33:38.056Z,55.00
2019-02-23T02:34:09.272Z,55.70
2019-02-23T02:34:40.452Z,55.00
2019-02-23T02:35:11.632Z,55.00
2019-02-23T02:35:42.816Z,55.00
2019-02-23T02:36:14.003Z,55.00
2019-02-23T02:36:45.200Z,55.00
2019-02-23T02:37:16.465Z,54.90
2019-02-23T02:37:47.641Z,55.60
2019-02-23T02:38:18.897Z,54.90
2019-02-23T02:38:50.089Z,54.80
2019-02-23T02:39:21.594Z,54.90
2019-02-23T02:39:53.588Z,54.80
2019-02-23T02:40:24.993Z,54.80
2019-02-23T02:40:56.524Z,54.80
2019-02-23T02:41:27.706Z,54.80
2019-02-23T02:41:58.885Z,54.80
2019-02-23T02:42:30.082Z,54.80
2019-02-23T02:43:01.309Z,54.80
2019-02-23T02:43:32.502Z,54.80
2019-02-23T02:44:03.689Z,54.80
2019-02-23T02:44:34.866Z,54.80
2019-02-23T02:45:06.075Z,55.50
2019-02-23T02:45:37.251Z,54.80
2019-02-23T02:46:08.465Z,54.80
2019-02-23T02:46:39.778Z,54.80
2019-02-23T02:47:11.067Z,54.80
2019-02-23T02:47:42.251Z,54.90
2019-02-23T02:48:13.824Z,54.90
2019-02-23T02:48:45.028Z,54.80
2019-02-23T02:49:16.250Z,54.80
2019-02-23T02:49:47.472Z,54.80
2019-02-23T02:50:24.328Z,54.80
2019-02-23T02:50:51.599Z,54.80
2019-02-23T02:51:23.116Z,54.90
2019-02-23T02:51:54.382Z,54.80
2019-02-23T02:52:25.665Z,54.80
2019-02-23T02:52:56.949Z,54.80
2019-02-23T02:53:28.450Z,54.80
2019-02-23T02:53:59.650Z,54.80
2019-02-23T02:54:30.825Z,54.90
2019-02-23T02:55:02.003Z,54.80
2019-02-23T02:55:33.484Z,54.80
2019-02-23T02:56:04.666Z,54.90
2019-02-23T02:56:35.856Z,54.90
2019-02-23T02:57:07.029Z,54.90
2019-02-23T02:57:38.212Z,54.90
2019-02-23T02:58:09.392Z,54.90
2019-02-23T02:58:40.573Z,54.90
2019-02-23T02:59:11.782Z,54.90
2019-02-23T02:59:42.956Z,54.90
2019-02-23T03:00:14.188Z,55.00
2019-02-23T03:00:45.362Z,54.90
2019-02-23T03:01:16.593Z,54.90
2019-02-23T03:01:47.762Z,54.90
2019-02-23T03:02:18.952Z,54.90
2019-02-23T03:02:50.174Z,54.90
2019-02-23T03:03:21.350Z,55.00
2019-02-23T03:03:52.541Z,55.00
2019-02-23T03:04:23.738Z,55.00
2019-02-23T03:04:54.909Z,54.90
2019-02-23T03:05:26.090Z,54.90
2019-02-23T03:05:57.272Z,54.90
2019-02-23T03:06:28.457Z,54.90
2019-02-23T03:06:59.698Z,54.90
2019-02-23T03:07:30.870Z,55.00
2019-02-23T03:08:02.062Z,54.80
2019-02-23T03:08:33.242Z,54.80
2019-02-23T03:09:04.419Z,54.80
2019-02-23T03:09:35.599Z,54.80
2019-02-23T03:10:06.776Z,54.80
2019-02-23T03:10:37.978Z,54.80
2019-02-23T03:11:09.531Z,54.80
2019-02-23T03:11:41.123Z,54.80
2019-02-23T03:12:12.361Z,54.80
2019-02-23T03:12:43.552Z,54.80
2019-02-23T03:13:14.725Z,54.80
2019-02-23T03:13:45.950Z,54.80
2019-02-23T03:14:17.172Z,54.80
2019-02-23T03:14:48.348Z,54.80
2019-02-23T03:15:19.520Z,54.80
2019-02-23T03:15:51.028Z,54.90
2019-02-23T03:16:22.200Z,54.80
2019-02-23T03:16:53.861Z,54.80
2019-02-23T03:17:25.060Z,54.80
2019-02-23T03:17:56.258Z,54.80
2019-02-23T03:18:27.559Z,54.80
2019-02-23T03:18:58.792Z,54.90
2019-02-23T03:19:30.270Z,54.80
2019-02-23T03:20:01.545Z,54.80
2019-02-23T03:20:36.612Z,54.80
2019-02-23T03:21:05.700Z,54.80
2019-02-23T03:21:36.976Z,54.90
2019-02-23T03:22:08.181Z,54.90
2019-02-23T03:22:39.534Z,54.80
2019-02-23T03:23:10.717Z,54.80
2019-02-23T03:23:41.896Z,54.80
2019-02-23T03:24:13.159Z,55.50
2019-02-23T03:24:44.337Z,54.90
2019-02-23T03:25:15.878Z,54.80
2019-02-23T03:25:47.159Z,54.90
2019-02-23T03:26:18.342Z,54.90
2019-02-23T03:26:49.782Z,54.90
2019-02-23T03:27:21.310Z,54.90
2019-02-23T03:27:52.798Z,54.90
2019-02-23T03:28:24.282Z,54.90
2019-02-23T03:28:55.469Z,55.00
2019-02-23T03:29:26.648Z,55.00
2019-02-23T03:29:57.859Z,55.00
2019-02-23T03:30:29.020Z,55.00
2019-02-23T03:31:00.213Z,54.90
2019-02-23T03:31:31.534Z,54.90
2019-02-23T03:32:02.710Z,54.90
2019-02-23T03:32:33.880Z,54.90
2019-02-23T03:33:05.064Z,54.90
2019-02-23T03:33:36.266Z,54.90
2019-02-23T03:34:07.456Z,54.90
2019-02-23T03:34:38.632Z,54.80
2019-02-23T03:35:09.822Z,54.80
2019-02-23T03:35:41.059Z,54.80
2019-02-23T03:36:12.242Z,54.90
2019-02-23T03:36:43.416Z,54.80
2019-02-23T03:37:14.930Z,54.90
2019-02-23T03:37:46.128Z,54.80
2019-02-23T03:38:17.307Z,54.80
2019-02-23T03:38:48.500Z,54.80
2019-02-23T03:39:19.780Z,54.80
2019-02-23T03:39:50.961Z,54.80
2019-02-23T03:40:22.136Z,54.90
2019-02-23T03:40:53.347Z,54.90
2019-02-23T03:41:24.580Z,54.90
2019-02-23T03:41:55.796Z,54.90
2019-02-23T03:42:27.004Z,54.90
2019-02-23T03:42:58.220Z,54.90
2019-02-23T03:43:29.721Z,54.90
2019-02-23T03:44:01.023Z,54.90
2019-02-23T03:44:32.598Z,54.90
2019-02-23T03:45:03.774Z,54.90
2019-02-23T03:45:34.953Z,54.80
2019-02-23T03:46:06.630Z,54.90
2019-02-23T03:46:37.810Z,55.00
2019-02-23T03:47:09.129Z,54.90
2019-02-23T03:47:40.610Z,55.00
2019-02-23T03:48:11.794Z,54.90
2019-02-23T03:48:43.274Z,54.90
2019-02-23T03:49:14.457Z,54.90
2019-02-23T03:49:45.645Z,55.00
2019-02-23T03:50:17.479Z,55.00
2019-02-23T03:50:49.574Z,55.00
2019-02-23T03:51:20.923Z,55.00
2019-02-23T03:51:52.090Z,55.00
2019-02-23T03:52:23.304Z,55.00
2019-02-23T03:52:54.561Z,55.10
2019-02-23T03:53:25.737Z,55.00
2019-02-23T03:53:56.907Z,55.00
2019-02-23T03:54:28.089Z,55.00
2019-02-23T03:54:59.263Z,55.00
2019-02-23T03:55:30.447Z,54.90
2019-02-23T03:56:01.760Z,54.30
2019-02-23T03:56:32.976Z,54.80
2019-02-23T03:57:04.154Z,54.80
2019-02-23T03:57:35.655Z,54.90
2019-02-23T03:58:07.203Z,54.80
2019-02-23T03:58:38.736Z,54.80
2019-02-23T03:59:09.907Z,54.80
2019-02-23T03:59:41.109Z,54.80
2019-02-23T04:00:12.380Z,54.80
2019-02-23T04:00:43.565Z,54.80
2019-02-23T04:01:14.769Z,54.80
2019-02-23T04:01:45.953Z,54.80
2019-02-23T04:02:17.126Z,55.50
2019-02-23T04:02:48.599Z,54.80
2019-02-23T04:03:19.785Z,55.00
2019-02-23T04:03:50.989Z,54.80
2019-02-23T04:04:22.169Z,54.80
2019-02-23T04:04:53.678Z,54.80
2019-02-23T04:05:24.881Z,54.90
2019-02-23T04:05:56.065Z,54.80
2019-02-23T04:06:27.252Z,54.80
2019-02-23T04:06:58.449Z,55.30
2019-02-23T04:07:29.666Z,54.80
2019-02-23T04:08:01.278Z,54.90
2019-02-23T04:08:32.526Z,54.90
2019-02-23T04:09:03.702Z,54.80
2019-02-23T04:09:34.881Z,54.80
2019-02-23T04:10:06.057Z,54.80
2019-02-23T04:10:37.242Z,54.80
2019-02-23T04:11:08.424Z,54.80
2019-02-23T04:11:39.669Z,54.80
2019-02-23T04:12:11.292Z,54.90
2019-02-23T04:12:42.935Z,54.90
2019-02-23T04:13:14.143Z,54.90
2019-02-23T04:13:45.318Z,54.90
2019-02-23T04:14:16.856Z,55.00
2019-02-23T04:14:48.039Z,54.90
2019-02-23T04:15:19.501Z,54.90
2019-02-23T04:15:50.692Z,54.90
2019-02-23T04:16:21.946Z,54.90
2019-02-23T04:16:53.131Z,55.00
2019-02-23T04:17:24.448Z,55.00
2019-02-23T04:17:55.635Z,54.90
2019-02-23T04:18:26.883Z,54.90
2019-02-23T04:18:58.068Z,54.90
2019-02-23T04:19:29.232Z,54.90
2019-02-23T04:20:00.420Z,54.80
2019-02-23T04:20:31.682Z,54.90
2019-02-23T04:21:02.852Z,54.80
2019-02-23T04:21:34.077Z,54.80
2019-02-23T04:22:05.279Z,54.80
2019-02-23T04:22:36.462Z,54.80
2019-02-23T04:23:07.635Z,54.80
2019-02-23T04:23:38.882Z,54.80
2019-02-23T04:24:10.349Z,54.80
2019-02-23T04:24:41.538Z,54.80
2019-02-23T04:25:12.905Z,54.80
2019-02-23T04:25:44.453Z,54.80
2019-02-23T04:26:15.634Z,54.80
2019-02-23T04:26:46.980Z,54.80
2019-02-23T04:27:18.154Z,54.80
2019-02-23T04:27:49.346Z,54.80
2019-02-23T04:28:20.521Z,54.80
2019-02-23T04:28:51.746Z,54.80
2019-02-23T04:29:22.928Z,54.80
2019-02-23T04:29:54.521Z,54.80
2019-02-23T04:30:26.059Z,54.80
2019-02-23T04:30:57.241Z,54.80
2019-02-23T04:31:28.423Z,54.80
2019-02-23T04:31:59.593Z,54.80
2019-02-23T04:32:30.769Z,54.90
2019-02-23T04:33:01.943Z,54.90
2019-02-23T04:33:33.126Z,55.00
2019-02-23T04:34:04.311Z,54.90
2019-02-23T04:34:35.561Z,54.90
2019-02-23T04:35:06.778Z,54.90
2019-02-23T04:35:37.998Z,54.90
2019-02-23T04:36:09.287Z,54.90
2019-02-23T04:36:40.454Z,54.90
2019-02-23T04:37:11.632Z,55.00
2019-02-23T04:37:43.133Z,54.90
2019-02-23T04:38:14.311Z,54.90
2019-02-23T04:38:45.499Z,54.90
2019-02-23T04:39:16.747Z,55.00
2019-02-23T04:39:47.924Z,54.90
2019-02-23T04:40:19.099Z,54.90
2019-02-23T04:40:50.589Z,54.90
2019-02-23T04:41:21.763Z,54.90
2019-02-23T04:41:52.950Z,55.00
2019-02-23T04:42:24.122Z,54.90
2019-02-23T04:42:55.304Z,55.00
2019-02-23T04:43:26.480Z,54.90
2019-02-23T04:43:57.998Z,55.00
2019-02-23T04:44:29.185Z,55.00
2019-02-23T04:45:00.360Z,55.00
2019-02-23T04:45:31.589Z,55.00
2019-02-23T04:46:03.124Z,55.00
2019-02-23T04:46:34.316Z,55.00
2019-02-23T04:47:05.504Z,54.90
2019-02-23T04:47:36.701Z,54.90
2019-02-23T04:48:07.877Z,54.90
2019-02-23T04:48:39.314Z,54.90
2019-02-23T04:49:10.514Z,54.80
2019-02-23T04:49:41.725Z,54.80
2019-02-23T04:50:12.909Z,54.80
2019-02-23T04:50:44.137Z,54.80
2019-02-23T04:51:15.325Z,54.70
2019-02-23T04:51:46.640Z,54.70
2019-02-23T04:52:18.228Z,54.70
2019-02-23T04:52:49.408Z,54.80
2019-02-23T04:53:20.578Z,54.70
2019-02-23T04:53:51.822Z,54.70
2019-02-23T04:54:23.012Z,54.70
2019-02-23T04:54:54.215Z,54.70
2019-02-23T04:55:25.730Z,54.70
2019-02-23T04:55:56.906Z,54.70
2019-02-23T04:56:28.388Z,54.70
2019-02-23T04:56:59.567Z,54.70
2019-02-23T04:57:30.791Z,54.70
2019-02-23T04:58:02.051Z,54.70
2019-02-23T04:58:33.526Z,54.80
2019-02-23T04:59:05.064Z,54.70
2019-02-23T04:59:36.239Z,54.70
2019-02-23T05:00:07.774Z,54.70
2019-02-23T05:00:39.120Z,54.80
2019-02-23T05:01:10.335Z,54.80
2019-02-23T05:01:41.527Z,54.90
2019-02-23T05:02:12.778Z,54.80
2019-02-23T05:02:43.977Z,54.80
2019-02-23T05:03:15.144Z,54.90
2019-02-23T05:03:46.324Z,54.90
2019-02-23T05:04:17.802Z,54.80
2019-02-23T05:04:48.977Z,54.80
2019-02-23T05:05:20.162Z,54.80
2019-02-23T05:05:51.360Z,54.70
2019-02-23T05:06:22.532Z,54.70
2019-02-23T05:06:53.718Z,54.90
2019-02-23T05:07:24.957Z,54.70
2019-02-23T05:07:56.132Z,54.70
2019-02-23T05:08:27.333Z,54.70
2019-02-23T05:08:58.505Z,54.70
2019-02-23T05:09:30.033Z,54.70
2019-02-23T05:10:01.226Z,54.60
2019-02-23T05:10:32.468Z,54.60
2019-02-23T05:11:03.722Z,54.60
2019-02-23T05:11:34.909Z,54.60
2019-02-23T05:12:06.090Z,54.60
2019-02-23T05:12:37.287Z,54.60
2019-02-23T05:13:08.482Z,54.60
2019-02-23T05:13:39.714Z,54.60
2019-02-23T05:14:10.958Z,54.60
2019-02-23T05:14:42.445Z,54.60
2019-02-23T05:15:13.629Z,54.60
2019-02-23T05:15:44.831Z,54.60
2019-02-23T05:16:16.014Z,54.60
2019-02-23T05:16:47.292Z,54.60
2019-02-23T05:17:18.474Z,55.30
2019-02-23T05:17:49.650Z,54.60
2019-02-23T05:18:20.823Z,55.30
2019-02-23T05:18:52.010Z,54.60
2019-02-23T05:19:23.192Z,54.70
2019-02-23T05:19:54.359Z,54.60
2019-02-23T05:20:25.563Z,54.60
2019-02-23T05:20:56.767Z,54.70
2019-02-23T05:21:27.935Z,54.70
2019-02-23T05:21:59.390Z,54.70
2019-02-23T05:22:30.564Z,54.80
2019-02-23T05:23:02.260Z,54.70
2019-02-23T05:23:33.449Z,54.70
2019-02-23T05:24:04.640Z,54.70
2019-02-23T05:24:35.815Z,54.70
2019-02-23T05:25:06.991Z,54.70
2019-02-23T05:25:38.240Z,54.70
2019-02-23T05:26:09.448Z,54.70
2019-02-23T05:26:40.623Z,54.70
2019-02-23T05:27:11.805Z,54.70
2019-02-23T05:27:43.056Z,54.70
2019-02-23T05:28:14.337Z,54.70
2019-02-23T05:28:45.520Z,54.70
2019-02-23T05:29:16.764Z,54.70
2019-02-23T05:29:47.941Z,54.70
2019-02-23T05:30:19.132Z,54.70
2019-02-23T05:30:50.297Z,54.70
2019-02-23T05:31:22.310Z,54.70
2019-02-23T05:31:54.006Z,54.70
2019-02-23T05:32:25.260Z,54.80
2019-02-23T05:32:56.448Z,54.80
2019-02-23T05:33:27.657Z,54.70
2019-02-23T05:33:58.846Z,54.70
2019-02-23T05:34:30.302Z,54.70
2019-02-23T05:35:01.631Z,54.80
2019-02-23T05:35:32.811Z,54.70
2019-02-23T05:36:04.015Z,54.70
2019-02-23T05:36:35.254Z,54.70
2019-02-23T05:37:06.434Z,54.70
2019-02-23T05:37:37.601Z,54.70
2019-02-23T05:38:08.878Z,55.20
2019-02-23T05:38:40.051Z,54.80
2019-02-23T05:39:11.231Z,54.80
2019-02-23T05:39:42.422Z,54.80
2019-02-23T05:40:14.005Z,54.80
2019-02-23T05:40:45.221Z,54.80
2019-02-23T05:41:16.407Z,54.90
2019-02-23T05:41:47.853Z,54.80
2019-02-23T05:42:19.119Z,54.80
2019-02-23T05:43:00.335Z,55.40
2019-02-23T05:43:23.195Z,54.70
2019-02-23T05:43:54.375Z,54.70
2019-02-23T05:44:25.650Z,55.30
2019-02-23T05:44:56.831Z,54.70
2019-02-23T05:45:28.027Z,54.70
2019-02-23T05:45:59.207Z,54.70
2019-02-23T05:46:30.724Z,54.70
2019-02-23T05:47:01.915Z,54.70
2019-02-23T05:47:33.087Z,54.70
2019-02-23T05:48:04.272Z,54.70
2019-02-23T05:48:35.453Z,54.70
2019-02-23T05:49:06.949Z,54.70
2019-02-23T05:49:38.165Z,54.70
2019-02-23T05:50:09.436Z,54.70
2019-02-23T05:50:40.617Z,54.70
2019-02-23T05:51:11.789Z,54.60
2019-02-23T05:51:42.969Z,55.30
2019-02-23T05:52:14.141Z,54.70
2019-02-23T05:52:45.322Z,54.60
2019-02-23T05:53:16.515Z,55.20
2019-02-23T05:53:47.683Z,54.60
2019-02-23T05:54:18.937Z,54.60
2019-02-23T05:54:50.141Z,54.70
2019-02-23T05:55:21.322Z,54.70
2019-02-23T05:55:52.802Z,54.70
2019-02-23T05:56:24.055Z,54.70
2019-02-23T05:56:55.245Z,54.70
2019-02-23T05:57:26.787Z,54.70
2019-02-23T05:57:58.016Z,54.80
2019-02-23T05:58:29.201Z,54.80
2019-02-23T05:59:00.382Z,54.70
2019-02-23T05:59:32.066Z,54.70
2019-02-23T06:00:03.274Z,54.60
2019-02-23T06:00:34.442Z,54.60
2019-02-23T06:01:05.622Z,54.60
2019-02-23T06:01:36.787Z,54.60
2019-02-23T06:02:07.974Z,54.50
2019-02-23T06:02:39.234Z,54.50
2019-02-23T06:03:10.409Z,54.50
2019-02-23T06:03:41.574Z,54.50
2019-02-23T06:04:13.092Z,54.60
2019-02-23T06:04:44.284Z,54.50
2019-02-23T06:05:15.463Z,54.50
2019-02-23T06:05:46.758Z,54.50
2019-02-23T06:06:17.931Z,54.50
2019-02-23T06:06:49.117Z,54.50
2019-02-23T06:07:20.295Z,54.50
2019-02-23T06:07:51.474Z,54.50
2019-02-23T06:08:22.656Z,54.50
2019-02-23T06:08:53.873Z,54.50
2019-02-23T06:09:25.060Z,54.50
2019-02-23T06:09:56.240Z,54.50
2019-02-23T06:10:27.420Z,54.50
2019-02-23T06:10:58.917Z,54.50
2019-02-23T06:11:30.484Z,54.50
2019-02-23T06:12:01.736Z,54.50
2019-02-23T06:12:32.949Z,54.50
2019-02-23T06:13:04.129Z,54.50
2019-02-23T06:13:35.314Z,55.20
2019-02-23T06:14:06.817Z,54.60
2019-02-23T06:14:37.989Z,54.60
2019-02-23T06:15:09.334Z,54.60
2019-02-23T06:15:40.542Z,54.60
2019-02-23T06:16:11.718Z,54.60
2019-02-23T06:16:43.186Z,54.60
2019-02-23T06:17:14.357Z,54.60
2019-02-23T06:17:45.561Z,54.60
2019-02-23T06:18:16.965Z,55.20
2019-02-23T06:18:48.201Z,54.60
2019-02-23T06:19:19.422Z,54.60
2019-02-23T06:19:50.655Z,54.60
2019-02-23T06:20:21.827Z,54.60
2019-02-23T06:20:53.012Z,54.60
2019-02-23T06:21:24.658Z,54.50
2019-02-23T06:21:56.151Z,54.50
2019-02-23T06:22:27.341Z,54.50
2019-02-23T06:22:58.537Z,54.50
2019-02-23T06:23:29.775Z,54.60
2019-02-23T06:24:00.975Z,54.60
2019-02-23T06:24:32.254Z,54.60
2019-02-23T06:25:03.509Z,54.70
2019-02-23T06:25:34.764Z,55.30
2019-02-23T06:26:05.993Z,54.60
2019-02-23T06:26:37.365Z,54.60
2019-02-23T06:27:08.569Z,54.60
2019-02-23T06:27:40.195Z,54.70
2019-02-23T06:28:11.377Z,54.60
2019-02-23T06:28:42.560Z,54.60
2019-02-23T06:29:13.811Z,54.60
2019-02-23T06:29:44.987Z,54.60
2019-02-23T06:30:18.463Z,54.60
2019-02-23T06:30:49.345Z,54.60
2019-02-23T06:31:20.544Z,54.60
2019-02-23T06:31:51.723Z,54.50
2019-02-23T06:32:22.907Z,54.50
2019-02-23T06:32:54.219Z,54.50
2019-02-23T06:33:25.399Z,54.60
2019-02-23T06:33:56.648Z,54.50
2019-02-23T06:34:27.833Z,54.50
2019-02-23T06:34:59.285Z,54.50
2019-02-23T06:35:30.461Z,54.60
2019-02-23T06:36:01.717Z,54.50
2019-02-23T06:36:33.005Z,54.50
2019-02-23T06:37:04.179Z,54.50
2019-02-23T06:37:35.675Z,54.50
2019-02-23T06:38:06.853Z,54.40
2019-02-23T06:38:38.057Z,54.50
2019-02-23T06:39:09.965Z,54.50
2019-02-23T06:39:41.138Z,54.50
2019-02-23T06:40:12.644Z,54.50
2019-02-23T06:40:44.389Z,54.50
2019-02-23T06:41:15.636Z,54.50
2019-02-23T06:41:46.846Z,54.50
2019-02-23T06:42:18.023Z,54.50
2019-02-23T06:42:49.209Z,54.50